Arima, Trinidad And Tobago

7:27 AM AST on April 26, 2017 (GMT -0400)
Piarco International | | Change Station

Elev 49 ft 10.62 °N, 61.35 °W | Updated 27 minutes ago

Clear
Clear
81 °F
Feels Like 85 °F
N
7
Wind Variable Wind from East

Today
High -- | Low -- °F
--% Chance of Precip.
Yesterday
High -- | Low -- °F
Precip. -- in
Pressure 29.89 in
Visibility 4.3 miles
Clouds Few 1800 ft
Heat Index 85 °F
Dew Point 73 °F
Humidity 79%
Rainfall 0.00 in
Snow Depth Not available.
5:48 AM 6:16 PM
Waning Crescent, 0% visible
METAR TTPP 261100Z 10006KT 7000 FEW018 27/23 Q1012 NOSIG RMK DUST HAZE MIST
Pressure 29.89 in
Visibility 4.3 miles
Clouds Few 1800 ft
Heat Index 85 °F
Dew Point 73 °F
Humidity 79%
Rainfall 0.00 in
Snow Depth Not available.
5:48 AM 6:16 PM
Waning Crescent, 0% visible
METAR TTPP 261100Z 10006KT 7000 FEW018 27/23 Q1012 NOSIG RMK DUST HAZE MIST

Get Severe Weather Alerts

Thanks for signing up!

Be on the lookout for a verification email in your inbox.

You'll start receiving the daily forecast at 8 AM.

×

10-Day Weather Forecast

No radar image for this location.
×

Almanac

Astronomy

Apr. 26, 2017 Rise Set
Actual Time
Civil Twilight
Nautical Twilight
Astronomical Twilight
Moon
Length of Visible Light
Length of Day
Tomorrow will be .
, % of the Moon is Illuminated

Today's Extremes

Country Highs Country Lows

Community

WunderPhotos

WunderBlog® & News

Nearby

Air Quality

  Air Quality AQ Index Pollutant
Not available.

Snow Depth

Station Depth Elevation

Earthquake Activity

City Distance Mag. Time & Date
Minimum magnitude displayed is 2.5.

Coastal Water Temperatures

Place Temperature

Stations

Nearby Weather Stations

Station Location Temp. Windchill Dew Point Humidity Wind Precip. Elev Updated Type